Pequeri, Brazil
Current Conditions -  °F | °C
As of 8:00 AM on Friday 31 Oct 2014 (Local Time) from SBJF Reporting Station
Scattered Clouds Scattered Clouds  
Wind Chill: 70°   Ceiling: Unl
Heat Index: 70°   Visibility: 6mi
Dew Point: 64°   Wind: 12mph
Humidity: 83%   Direction: 30°NNE
Pressure: 30.09"   Gusts: NA
Location:  21.83°S, 43.12°W
Report Text: SBJF 311000Z 03010KT 9999 SCT017 21/18 Q1019
Loading
Personal Weather Stations






























Interactive Weather Map
Tropical Storm Tracking
New forecast layout! Learn more

10-Day Weather Forecast

Advertisements
Track Severe Weather on mobile